Time;durP1;ratioP1;P1;durP2;ratioP2;P2;SDS_P1;SDS_P2;PMS_P1;PMS_P2;Temp;Humidity;BMP_temperature;BMP_pressure;BME280_temperature;BME280_humidity;BME280_pressure;Samples;Min_cycle;Max_cycle;Signal;HPM_P1;HPM_P2
2022/10/29 00:00:28;;;;;;;;;;;;;;;10.63;61.64;100959.25;4931947;29;20464;-85
2022/10/29 00:02:53;;;;;;;;;;;;;;;10.75;61.30;100955.75;4932354;29;19919;-84
2022/10/29 00:05:19;;;;;;;;;;;;;;;10.75;60.39;100963.69;4932357;29;20360;-85
2022/10/29 00:07:44;;;;;;;;;;;;;;;10.74;60.06;100959.28;4914454;29;19969;-84
2022/10/29 00:10:09;;;;;;;;;;;;;;;10.57;60.37;100957.44;4932485;29;20379;-85
2022/10/29 00:12:35;;;;;;;;;;;;;;;10.62;60.71;100956.59;4932423;29;20386;-85
2022/10/29 00:15:00;;;;;;;;;;;;;;;10.74;60.25;100954.88;4931709;29;20717;-85
2022/10/29 00:17:26;;;;;;;;;;;;;;;10.76;60.33;100960.19;4931929;29;20405;-86
2022/10/29 00:19:51;;;;;;;;;;;;;;;10.74;60.46;100959.28;4931522;29;20460;-87
2022/10/29 00:22:16;;;;;;;;;;;;;;;10.69;61.18;100956.63;4931338;29;20461;-86
2022/10/29 00:24:42;;;;;;;;;;;;;;;10.66;60.88;100945.16;4931777;29;19914;-89
2022/10/29 00:27:07;;;;;;;;;;;;;;;10.58;61.50;100942.47;4932315;29;19937;-86
2022/10/29 00:29:32;;;;;;;;;;;;;;;10.53;61.66;100941.59;4931318;29;20305;-86
2022/10/29 00:31:58;;;;;;;;;;;;;;;10.59;61.62;100946.03;4931520;29;20427;-86
2022/10/29 00:34:23;;;;;;;;;;;;;;;10.61;61.30;100939.00;4931964;29;20374;-86
2022/10/29 00:36:48;;;;;;;;;;;;;;;10.47;61.76;100938.91;4930838;29;20328;-86
2022/10/29 00:39:14;;;;;;;;;;;;;;;10.53;61.80;100937.22;4931851;29;20408;-85
2022/10/29 00:41:39;;;;;;;;;;;;;;;10.56;61.57;100933.69;4930973;29;19918;-85
2022/10/29 00:44:14;;;;;;;;;;;;;;;10.56;61.77;100934.56;4914051;29;20535;-85
2022/10/29 00:46:45;;;;;;;;;;;;;;;10.57;62.25;100931.06;4931843;29;19929;-85
2022/10/29 00:49:10;;;;;;;;;;;;;;;10.54;62.42;100923.13;4931183;29;19918;-87
2022/10/29 00:51:37;;;;;;;;;;;;;;;10.66;61.96;100921.41;4930991;29;19918;-85
2022/10/29 00:54:07;;;;;;;;;;;;;;;10.56;61.39;100917.84;4913804;29;20298;-85
2022/10/29 00:56:34;;;;;;;;;;;;;;;10.55;61.53;100922.25;4931132;29;19961;-86
2022/10/29 00:59:00;;;;;;;;;;;;;;;10.59;61.35;100919.63;4931182;29;19922;-87
2022/10/29 01:01:25;;;;;;;;;;;;;;;10.53;61.90;100920.47;4930718;29;20401;-85
2022/10/29 01:03:51;;;;;;;;;;;;;;;10.45;62.38;100920.44;4930602;29;19919;-85
2022/10/29 01:06:17;;;;;;;;;;;;;;;10.50;62.05;100916.09;4931178;29;19914;-84
2022/10/29 01:08:42;;;;;;;;;;;;;;;10.51;61.70;100920.47;4930677;29;19978;-86
2022/10/29 01:11:24;;;;;;;;;;;;;;;10.33;61.72;100923.03;4931082;29;19925;-83
2022/10/29 01:13:52;;;;;;;;;;;;;;;10.43;61.44;100929.25;4930946;29;19915;-84
2022/10/29 01:16:17;;;;;;;;;;;;;;;10.39;61.53;100923.97;4930944;29;19919;-84
2022/10/29 01:18:42;;;;;;;;;;;;;;;10.00;61.38;100917.50;4931080;29;19970;-84
2022/10/29 01:21:20;;;;;;;;;;;;;;;10.14;61.70;100917.59;4931020;29;19922;-84
2022/10/29 01:23:48;;;;;;;;;;;;;;;10.27;61.53;100915.94;4930688;29;19925;-84
2022/10/29 01:26:13;;;;;;;;;;;;;;;10.07;61.27;100899.09;4931131;29;19921;-84
2022/10/29 01:28:48;;;;;;;;;;;;;;;10.16;61.20;100907.97;4930436;29;20017;-83
2022/10/29 01:31:29;;;;;;;;;;;;;;;10.06;61.80;100903.50;4930469;29;19990;-84
2022/10/29 01:33:55;;;;;;;;;;;;;;;10.14;61.22;100904.41;4930726;29;19954;-83
2022/10/29 01:36:20;;;;;;;;;;;;;;;10.16;61.65;100905.34;4930468;29;20009;-83
2022/10/29 01:38:45;;;;;;;;;;;;;;;10.03;61.39;100904.34;4930615;29;20096;-84
2022/10/29 01:41:16;;;;;;;;;;;;;;;9.98;61.11;100908.72;4930326;29;20357;-83
2022/10/29 01:43:42;;;;;;;;;;;;;;;9.91;61.15;100909.53;4930882;29;19926;-84
2022/10/29 01:46:11;;;;;;;;;;;;;;;9.74;62.01;100909.41;4914311;29;19922;-84
2022/10/29 01:48:38;;;;;;;;;;;;;;;9.88;61.86;100909.53;4931265;29;20014;-84
2022/10/29 01:51:07;;;;;;;;;;;;;;;9.88;61.48;100906.00;4931329;29;19919;-83
2022/10/29 01:53:35;;;;;;;;;;;;;;;9.83;61.93;100904.22;4932184;29;19919;-85
2022/10/29 01:56:00;;;;;;;;;;;;;;;9.88;61.45;100896.34;4931985;29;19919;-85
2022/10/29 01:58:25;;;;;;;;;;;;;;;9.74;62.00;100909.41;4934880;29;20689;-85
2022/10/29 02:00:58;;;;;;;;;;;;;;;9.67;62.38;100905.84;4930920;29;20409;-84
2022/10/29 02:03:32;;;;;;;;;;;;;;;9.71;62.22;100903.25;4930437;29;19938;-85
2022/10/29 02:06:13;;;;;;;;;;;;;;;9.74;61.40;100900.63;4930041;29;19915;-85
2022/10/29 02:08:41;;;;;;;;;;;;;;;9.59;62.35;100899.66;4929673;29;19981;-85
2022/10/29 02:11:23;;;;;;;;;;;;;;;9.39;63.14;100907.38;4930171;29;20021;-85
2022/10/29 02:13:56;;;;;;;;;;;;;;;9.35;63.79;100902.06;4930307;29;19957;-84
2022/10/29 02:16:22;;;;;;;;;;;;;;;9.08;64.56;100901.81;4930084;29;19915;-83
2022/10/29 02:18:48;;;;;;;;;;;;;;;9.09;64.61;100903.56;4929538;29;19927;-84
2022/10/29 02:21:14;;;;;;;;;;;;;;;9.06;64.62;100906.16;4929987;29;20381;-84
2022/10/29 02:23:39;;;;;;;;;;;;;;;9.06;64.60;100903.53;4930405;29;19965;-83
2022/10/29 02:26:05;;;;;;;;;;;;;;;8.87;64.97;100904.22;4929697;29;19922;-83
2022/10/29 02:28:30;;;;;;;;;;;;;;;8.94;64.68;100908.66;4912791;29;20385;-82
2022/10/29 02:30:55;;;;;;;;;;;;;;;9.03;64.30;100905.25;4912553;29;19918;-83
2022/10/29 02:33:21;;;;;;;;;;;;;;;9.01;64.73;100910.50;4929725;29;19926;-84
2022/10/29 02:35:46;;;;;;;;;;;;;;;9.11;64.37;100903.56;4929669;29;19919;-83
2022/10/29 02:38:11;;;;;;;;;;;;;;;9.02;64.15;100904.38;4929966;29;19925;-84
2022/10/29 02:40:37;;;;;;;;;;;;;;;8.94;63.42;100900.75;4930059;29;19926;-84
2022/10/29 02:43:02;;;;;;;;;;;;;;;8.82;64.26;100908.53;4930128;29;20728;-83
2022/10/29 02:45:27;;;;;;;;;;;;;;;8.82;63.66;100900.63;4929771;29;20033;-84
2022/10/29 02:47:52;;;;;;;;;;;;;;;8.62;64.25;100903.03;4929400;29;19926;-83
2022/10/29 02:50:18;;;;;;;;;;;;;;;8.12;66.32;100899.72;4929865;29;19919;-83
2022/10/29 02:52:43;;;;;;;;;;;;;;;8.11;66.61;100903.22;4929895;29;19918;-83
2022/10/29 02:55:08;;;;;;;;;;;;;;;8.20;66.69;100895.47;4929563;29;19915;-83
2022/10/29 02:57:34;;;;;;;;;;;;;;;8.05;66.05;100896.13;4929910;29;20329;-82
2022/10/29 02:59:59;;;;;;;;;;;;;;;7.95;67.31;100894.22;4929276;29;19915;-83
2022/10/29 03:02:24;;;;;;;;;;;;;;;8.11;67.27;100899.69;4929563;29;19918;-83
2022/10/29 03:04:50;;;;;;;;;;;;;;;8.15;66.47;100906.75;4912591;29;20024;-83
2022/10/29 03:07:15;;;;;;;;;;;;;;;8.31;66.45;100903.50;4932868;29;19962;-83
2022/10/29 03:09:40;;;;;;;;;;;;;;;8.42;65.78;100901.00;4933188;29;20290;-83
2022/10/29 03:12:06;;;;;;;;;;;;;;;8.28;66.09;100906.09;4933051;29;19922;-83
2022/10/29 03:14:31;;;;;;;;;;;;;;;8.37;65.80;100903.59;4932745;29;19997;-83
2022/10/29 03:16:56;;;;;;;;;;;;;;;8.40;65.42;100908.88;4932957;29;19957;-83
2022/10/29 03:19:22;;;;;;;;;;;;;;;8.34;65.95;100908.81;4932737;29;19983;-83
2022/10/29 03:21:47;;;;;;;;;;;;;;;8.45;65.90;100898.47;4932728;29;19974;-84
2022/10/29 03:24:12;;;;;;;;;;;;;;;8.41;65.61;100900.09;4932949;29;19915;-85
2022/10/29 03:26:37;;;;;;;;;;;;;;;8.41;64.82;100893.97;4933138;29;19915;-85
2022/10/29 03:29:03;;;;;;;;;;;;;;;8.29;65.44;100897.31;4932646;29;19930;-86
2022/10/29 03:31:28;;;;;;;;;;;;;;;8.05;65.83;100893.50;4932669;29;19919;-85
2022/10/29 03:33:53;;;;;;;;;;;;;;;8.16;65.66;100900.66;4932585;29;20670;-85
2022/10/29 03:36:19;;;;;;;;;;;;;;;8.02;65.91;100897.84;4932355;29;19919;-84
2022/10/29 03:38:44;;;;;;;;;;;;;;;7.87;65.41;100898.47;4932984;29;19958;-86
2022/10/29 03:41:09;;;;;;;;;;;;;;;7.86;65.46;100894.06;4933125;29;20002;-85
2022/10/29 03:43:35;;;;;;;;;;;;;;;7.98;65.17;100890.75;4932261;29;20402;-85
2022/10/29 03:46:01;;;;;;;;;;;;;;;8.09;65.35;100894.41;4932138;29;20453;-86
2022/10/29 03:48:26;;;;;;;;;;;;;;;8.18;64.95;100893.66;4932458;29;20014;-85
2022/10/29 03:50:56;;;;;;;;;;;;;;;8.00;65.23;100895.19;4932322;29;19992;-85
2022/10/29 03:53:22;;;;;;;;;;;;;;;8.05;65.36;100896.13;4932349;29;19982;-85
2022/10/29 03:55:48;;;;;;;;;;;;;;;8.07;65.42;100890.88;4932077;29;20298;-85
2022/10/29 03:58:13;;;;;;;;;;;;;;;8.03;65.98;100882.09;4932356;29;19914;-85
2022/10/29 04:00:39;;;;;;;;;;;;;;;8.14;65.49;100887.50;4931919;29;19915;-84
2022/10/29 04:03:04;;;;;;;;;;;;;;;8.21;65.81;100885.81;4932087;29;19953;-84
2022/10/29 04:05:29;;;;;;;;;;;;;;;8.20;65.94;100889.31;4932111;29;20029;-84
2022/10/29 04:07:54;;;;;;;;;;;;;;;8.28;65.58;100892.03;4932511;29;19945;-84
2022/10/29 04:10:20;;;;;;;;;;;;;;;8.35;65.29;100888.63;4931971;29;20437;-84
2022/10/29 04:12:45;;;;;;;;;;;;;;;8.28;65.61;100885.06;4915016;29;19926;-84
2022/10/29 04:15:11;;;;;;;;;;;;;;;8.23;65.58;100885.00;4932047;29;20378;-84
2022/10/29 04:17:36;;;;;;;;;;;;;;;8.07;65.18;100893.50;4930802;29;19922;-84
2022/10/29 04:20:01;;;;;;;;;;;;;;;7.96;65.82;100890.72;4931823;29;19919;-85
2022/10/29 04:22:27;;;;;;;;;;;;;;;7.97;65.35;100886.34;4931659;29;20491;-84
2022/10/29 04:24:52;;;;;;;;;;;;;;;8.08;65.34;100884.78;4931626;29;19927;-84
2022/10/29 04:27:17;;;;;;;;;;;;;;;8.06;65.15;100884.75;4931711;29;19977;-84
2022/10/29 04:29:43;;;;;;;;;;;;;;;8.04;65.81;100880.34;4931249;29;19925;-84
2022/10/29 04:32:08;;;;;;;;;;;;;;;8.04;65.84;100878.56;4931432;29;20393;-84
2022/10/29 04:34:33;;;;;;;;;;;;;;;8.07;65.77;100878.63;4931889;29;19926;-85
2022/10/29 04:36:58;;;;;;;;;;;;;;;8.04;65.94;100880.34;4931696;29;19922;-86
2022/10/29 04:39:24;;;;;;;;;;;;;;;8.10;65.74;100882.16;4931507;29;19919;-85
2022/10/29 04:41:49;;;;;;;;;;;;;;;8.14;65.89;100886.59;4931562;29;20472;-84
2022/10/29 04:44:14;;;;;;;;;;;;;;;8.18;66.20;100884.03;4931022;29;20325;-83
2022/10/29 04:46:40;;;;;;;;;;;;;;;8.28;65.42;100884.16;4930954;29;19980;-84
2022/10/29 04:49:05;;;;;;;;;;;;;;;8.07;65.72;100894.38;4931141;29;19966;-85
2022/10/29 04:51:30;;;;;;;;;;;;;;;7.71;66.60;100894.75;4931398;29;19957;-85
2022/10/29 04:53:56;;;;;;;;;;;;;;;7.97;66.09;100895.13;4931292;29;20001;-84
2022/10/29 04:56:21;;;;;;;;;;;;;;;7.98;65.64;100891.63;4914127;29;19928;-85
2022/10/29 04:58:49;;;;;;;;;;;;;;;7.97;65.87;100899.47;4930806;29;19923;-85
2022/10/29 05:01:14;;;;;;;;;;;;;;;8.06;65.56;100897.91;4931459;29;19926;-84
2022/10/29 05:03:39;;;;;;;;;;;;;;;7.89;67.25;100899.38;4931292;29;19919;-84
2022/10/29 05:06:05;;;;;;;;;;;;;;;7.40;69.93;100901.19;4930675;29;20381;-84
2022/10/29 05:08:31;;;;;;;;;;;;;;;7.53;70.22;100896.19;4931287;29;19994;-85
2022/10/29 05:10:56;;;;;;;;;;;;;;;7.77;69.67;100905.34;4931182;29;20669;-85
2022/10/29 05:13:21;;;;;;;;;;;;;;;7.94;69.63;100908.22;4930600;29;19914;-85
2022/10/29 05:15:50;;;;;;;;;;;;;;;7.93;68.99;100916.97;4930729;29;19919;-85
2022/10/29 05:18:15;;;;;;;;;;;;;;;7.61;70.18;100914.69;4930812;29;19915;-83
2022/10/29 05:20:40;;;;;;;;;;;;;;;7.70;70.59;100914.84;4930278;29;19919;-83
2022/10/29 05:23:07;;;;;;;;;;;;;;;7.74;70.20;100920.16;4931089;29;20316;-83
2022/10/29 05:25:33;;;;;;;;;;;;;;;7.83;69.78;100918.56;4930948;29;19919;-83
2022/10/29 05:28:18;;;;;;;;;;;;;;;8.17;69.15;100915.53;4930924;29;20003;-83
2022/10/29 05:30:43;;;;;;;;;;;;;;;8.25;69.13;100919.19;4930330;29;19966;-84
2022/10/29 05:33:09;;;;;;;;;;;;;;;8.47;68.86;100923.00;4930962;29;19922;-84
2022/10/29 05:35:35;;;;;;;;;;;;;;;8.44;68.10;100922.09;4930372;29;19925;-85
2022/10/29 05:38:00;;;;;;;;;;;;;;;8.55;67.58;100921.34;4930897;29;19922;-85
2022/10/29 05:40:26;;;;;;;;;;;;;;;8.40;67.82;100927.28;4930417;29;19926;-83
2022/10/29 05:42:51;;;;;;;;;;;;;;;8.69;67.59;100929.41;4930532;29;19922;-82
2022/10/29 05:45:17;;;;;;;;;;;;;;;8.66;67.80;100926.75;4929691;29;20370;-82
2022/10/29 05:47:42;;;;;;;;;;;;;;;8.56;68.66;100928.41;4913220;29;19974;-83
2022/10/29 05:50:08;;;;;;;;;;;;;;;8.63;68.95;100926.72;4930433;29;19918;-83
2022/10/29 05:52:33;;;;;;;;;;;;;;;8.87;67.56;100934.03;4929999;29;19981;-85
2022/10/29 05:54:58;;;;;;;;;;;;;;;8.98;67.47;100938.56;4929865;29;19918;-84
2022/10/29 05:57:24;;;;;;;;;;;;;;;9.05;67.00;100938.63;4930205;29;20001;-85
2022/10/29 05:59:49;;;;;;;;;;;;;;;9.40;66.44;100939.84;4929430;29;19954;-85
2022/10/29 06:02:14;;;;;;;;;;;;;;;9.30;66.51;100938.91;4930544;29;19981;-85
2022/10/29 06:04:40;;;;;;;;;;;;;;;9.38;66.22;100939.84;4930358;29;19919;-85
2022/10/29 06:07:05;;;;;;;;;;;;;;;9.64;66.25;100942.72;4930142;29;19915;-84
2022/10/29 06:09:30;;;;;;;;;;;;;;;9.59;66.02;100952.34;4929969;29;19918;-85
2022/10/29 06:11:56;;;;;;;;;;;;;;;9.72;65.52;100950.69;4930012;29;20785;-84
2022/10/29 06:14:21;;;;;;;;;;;;;;;9.73;65.72;100944.56;4929885;29;19925;-84
2022/10/29 06:16:46;;;;;;;;;;;;;;;10.07;63.77;100950.09;4930021;29;19918;-86
2022/10/29 06:19:12;;;;;;;;;;;;;;;10.44;62.69;100953.00;4929956;29;20397;-84
2022/10/29 06:21:37;;;;;;;;;;;;;;;10.43;63.29;100953.00;4912786;29;20385;-84
2022/10/29 06:24:02;;;;;;;;;;;;;;;10.65;62.47;100956.63;4930338;29;19918;-85
2022/10/29 06:26:28;;;;;;;;;;;;;;;10.37;63.72;100943.28;4930225;29;20400;-83
2022/10/29 06:28:53;;;;;;;;;;;;;;;10.70;63.11;100950.47;4930057;29;19918;-84
2022/10/29 06:31:18;;;;;;;;;;;;;;;10.70;63.15;100950.47;4929877;29;19919;-84
2022/10/29 06:33:44;;;;;;;;;;;;;;;11.05;63.01;100946.22;4930319;29;19918;-84
2022/10/29 06:36:09;;;;;;;;;;;;;;;11.34;62.34;100942.75;4930004;29;19923;-87
2022/10/29 06:38:34;;;;;;;;;;;;;;;11.42;61.42;100939.25;4930670;29;20370;-86
2022/10/29 06:41:00;;;;;;;;;;;;;;;11.50;61.48;100938.38;4931773;29;20717;-86
2022/10/29 06:43:25;;;;;;;;;;;;;;;11.70;60.48;100936.63;4933581;29;19925;-85
2022/10/29 06:45:50;;;;;;;;;;;;;;;11.59;60.72;100944.53;4933081;29;20445;-85
2022/10/29 06:48:15;;;;;;;;;;;;;;;11.72;60.73;100945.41;4933333;29;19969;-85
2022/10/29 06:50:41;;;;;;;;;;;;;;;12.16;60.16;100941.03;4933126;29;19915;-86
2022/10/29 06:53:08;;;;;;;;;;;;;;;12.14;60.34;100943.69;4933760;29;19981;-85
2022/10/29 06:55:34;;;;;;;;;;;;;;;12.51;59.27;100940.94;4915883;29;19922;-86
2022/10/29 06:58:00;;;;;;;;;;;;;;;12.37;58.10;100948.03;4933262;29;19919;-85
2022/10/29 07:00:26;;;;;;;;;;;;;;;12.57;58.92;100937.38;4933421;29;19965;-85
2022/10/29 07:02:51;;;;;;;;;;;;;;;12.92;57.75;100936.38;4933838;29;19919;-84
2022/10/29 07:05:17;;;;;;;;;;;;;;;13.15;57.45;100938.91;4934335;29;20432;-84
2022/10/29 07:07:42;;;;;;;;;;;;;;;13.27;56.06;100940.59;4937108;29;19922;-85
2022/10/29 07:10:07;;;;;;;;;;;;;;;13.52;55.96;100941.34;4936457;29;19919;-85
2022/10/29 07:12:38;;;;;;;;;;;;;;;13.64;55.87;100939.47;4936110;29;19922;-85
2022/10/29 07:15:03;;;;;;;;;;;;;;;13.50;56.06;100936.94;4933346;29;19922;-85
2022/10/29 07:17:28;;;;;;;;;;;;;;;13.53;54.73;100932.50;4939370;29;19914;-82
2022/10/29 07:19:54;;;;;;;;;;;;;;;13.46;54.38;100935.22;4937551;29;19973;-82
2022/10/29 07:22:19;;;;;;;;;;;;;;;13.55;54.39;100929.84;4936588;29;19943;-85
2022/10/29 07:24:44;;;;;;;;;;;;;;;13.57;54.33;100931.56;4933281;29;19915;-86
2022/10/29 07:27:10;;;;;;;;;;;;;;;13.74;54.43;100933.22;4932744;29;19915;-85
2022/10/29 07:29:35;;;;;;;;;;;;;;;14.17;54.37;100934.59;4932682;29;20290;-85
2022/10/29 07:32:00;;;;;;;;;;;;;;;14.34;52.47;100927.34;4915843;29;20317;-85
2022/10/29 07:34:25;;;;;;;;;;;;;;;14.40;52.56;100918.44;4932765;29;19966;-85
2022/10/29 07:36:51;;;;;;;;;;;;;;;14.37;52.49;100916.69;4932471;29;19926;-88
2022/10/29 07:39:16;;;;;;;;;;;;;;;14.42;51.31;100925.47;4915366;29;19914;-85
2022/10/29 07:41:41;;;;;;;;;;;;;;;14.64;52.36;100923.50;4932499;29;19951;-86
2022/10/29 07:44:07;;;;;;;;;;;;;;;14.73;51.18;100921.59;4931720;29;19950;-85
2022/10/29 07:46:32;;;;;;;;;;;;;;;14.61;52.09;100917.31;4931242;29;19961;-84
2022/10/29 07:48:58;;;;;;;;;;;;;;;14.61;51.27;100915.56;4933016;29;19970;-85
2022/10/29 07:51:24;;;;;;;;;;;;;;;14.38;52.67;100910.50;4932239;29;19919;-86
2022/10/29 07:53:49;;;;;;;;;;;;;;;14.74;51.14;100912.75;4932519;29;19993;-87
2022/10/29 07:56:14;;;;;;;;;;;;;;;14.74;51.33;100915.41;4932076;29;20491;-85
2022/10/29 07:58:39;;;;;;;;;;;;;;;15.07;50.05;100916.72;4931914;29;20457;-86
2022/10/29 08:01:05;;;;;;;;;;;;;;;14.93;52.07;100906.28;4932584;29;19961;-85
2022/10/29 08:03:30;;;;;;;;;;;;;;;15.02;51.77;100914.13;4932611;29;19998;-85
2022/10/29 08:05:56;;;;;;;;;;;;;;;15.20;50.00;100910.34;4932004;29;19921;-86
2022/10/29 08:08:22;;;;;;;;;;;;;;;15.34;50.30;100911.91;4932038;29;20010;-86
2022/10/29 08:10:48;;;;;;;;;;;;;;;15.40;50.46;100907.38;4914919;29;19928;-85
2022/10/29 08:13:13;;;;;;;;;;;;;;;15.68;49.11;100903.41;4932419;29;19919;-86
2022/10/29 08:15:38;;;;;;;;;;;;;;;15.71;49.31;100901.56;4932096;29;19918;-86
2022/10/29 08:18:08;;;;;;;;;;;;;;;16.18;47.74;100890.09;4931822;29;20384;-86
2022/10/29 08:20:33;;;;;;;;;;;;;;;16.17;47.98;100899.84;4914749;29;19927;-86
2022/10/29 08:22:59;;;;;;;;;;;;;;;15.66;48.50;100902.53;4933808;29;20027;-86
2022/10/29 08:25:25;;;;;;;;;;;;;;;15.89;49.26;100897.72;4933447;29;20030;-90
2022/10/29 08:27:57;;;;;;;;;;;;;;;16.23;48.36;100893.56;4931634;29;19925;-87
2022/10/29 08:30:22;;;;;;;;;;;;;;;15.82;48.26;100890.75;4931685;29;20789;-87
2022/10/29 08:32:47;;;;;;;;;;;;;;;15.75;48.73;100892.63;4914307;29;19923;-88
2022/10/29 08:35:13;;;;;;;;;;;;;;;15.98;47.73;100891.34;4931793;29;19919;-87
2022/10/29 08:37:42;;;;;;;;;;;;;;;15.74;48.03;100895.31;4931628;29;19926;-84
2022/10/29 08:40:13;;;;;;;;;;;;;;;15.66;47.61;100894.53;4914510;29;20496;-83
2022/10/29 08:42:47;;;;;;;;;;;;;;;15.61;48.06;100888.44;4931434;29;19919;-84
2022/10/29 08:45:39;;;;;;;;;;;;;;;15.61;47.75;100883.97;4931090;29;20365;-83
2022/10/29 08:48:07;;;;;;;;;;;;;;;15.89;47.98;100887.06;4927398;29;19926;-84
2022/10/29 08:50:39;;;;;;;;;;;;;;;16.19;47.18;100882.09;4931275;29;19919;-84
2022/10/29 08:53:13;;;;;;;;;;;;;;;16.60;47.33;100882.16;4931614;29;19989;-84
2022/10/29 08:55:39;;;;;;;;;;;;;;;16.84;45.80;100880.75;4931267;29;19925;-83
2022/10/29 08:58:16;;;;;;;;;;;;;;;16.89;45.66;100872.69;4931172;29;19918;-84
2022/10/29 09:00:41;;;;;;;;;;;;;;;16.80;45.18;100871.06;4931259;29;19950;-84
2022/10/29 09:03:11;;;;;;;;;;;;;;;17.00;45.65;100866.19;4930527;29;19973;-84
2022/10/29 09:05:48;;;;;;;;;;;;;;;17.26;45.14;100862.03;4930968;29;19918;-84
2022/10/29 09:08:37;;;;;;;;;;;;;;;17.02;44.95;100852.84;4931431;29;19938;-84
2022/10/29 09:11:07;;;;;;;;;;;;;;;16.93;46.62;100856.59;4913932;29;21982;-84
2022/10/29 09:13:51;;;;;;;;;;;;;;;17.30;47.12;100852.19;4931154;29;19915;-84
2022/10/29 09:16:24;;;;;;;;;;;;;;;17.23;44.77;100847.94;4930770;29;19918;-85
2022/10/29 09:18:56;;;;;;;;;;;;;;;17.31;44.05;100845.94;4931144;29;19986;-84
2022/10/29 09:21:32;;;;;;;;;;;;;;;17.11;44.13;100846.41;4931181;29;20374;-85
2022/10/29 09:24:04;;;;;;;;;;;;;;;17.22;45.54;100838.16;4930431;29;19922;-84
2022/10/29 09:26:41;;;;;;;;;;;;;;;17.57;45.29;100839.94;4930340;29;20408;-84
2022/10/29 09:29:12;;;;;;;;;;;;;;;17.57;43.95;100836.41;4930639;29;20412;-85
2022/10/29 09:31:43;;;;;;;;;;;;;;;17.69;42.93;100836.97;4913457;29;19915;-83
2022/10/29 09:34:11;;;;;;;;;;;;;;;17.62;43.10;100831.81;4914929;29;20334;-83
2022/10/29 09:36:37;;;;;;;;;;;;;;;17.80;44.07;100825.13;4913258;29;20705;-84
2022/10/29 09:39:09;;;;;;;;;;;;;;;17.97;42.92;100822.03;4914190;29;20009;-86
2022/10/29 09:41:35;;;;;;;;;;;;;;;18.23;42.39;100821.31;4932800;29;19915;-86
2022/10/29 09:44:06;;;;;;;;;;;;;;;18.17;42.24;100810.78;4931646;29;19925;-83
2022/10/29 09:46:38;;;;;;;;;;;;;;;18.41;43.45;100814.53;4930716;29;19918;-84
2022/10/29 09:49:06;;;;;;;;;;;;;;;18.38;41.87;100798.59;4930113;29;19924;-85
2022/10/29 09:52:04;;;;;;;;;;;;;;;18.70;41.97;100794.94;4929967;29;19957;-85
2022/10/29 09:54:30;;;;;;;;;;;;;;;19.03;41.81;100791.25;4887400;29;19918;-84
2022/10/29 09:56:57;;;;;;;;;;;;;;;18.93;41.71;100790.69;4930766;29;20005;-84
2022/10/29 09:59:52;;;;;;;;;;;;;;;19.09;41.42;100785.72;4912533;29;19919;-84
2022/10/29 10:02:17;;;;;;;;;;;;;;;18.99;41.86;100781.63;4914039;29;19922;-83
2022/10/29 10:04:45;;;;;;;;;;;;;;;19.06;41.25;100778.69;4930222;29;20357;-85
2022/10/29 10:07:15;;;;;;;;;;;;;;;19.19;41.27;100772.94;4929972;29;19930;-86
2022/10/29 10:09:59;;;;;;;;;;;;;;;19.35;40.07;100765.25;4930076;29;19987;-86
2022/10/29 10:12:42;;;;;;;;;;;;;;;18.95;41.53;100764.78;4930131;29;19919;-87
2022/10/29 10:15:18;;;;;;;;;;;;;;;19.20;40.15;100754.16;4912153;29;19926;-85
2022/10/29 10:17:57;;;;;;;;;;;;;;;19.39;40.31;100745.50;4930091;29;19934;-86
2022/10/29 10:20:28;;;;;;;;;;;;;;;19.20;40.59;100748.81;4929987;29;19919;-85
2022/10/29 10:22:53;;;;;;;;;;;;;;;19.74;40.11;100738.00;4930459;29;19966;-86
2022/10/29 10:25:32;;;;;;;;;;;;;;;19.79;39.03;100736.09;4930175;29;19962;-85
2022/10/29 10:28:01;;;;;;;;;;;;;;;19.70;39.81;100728.34;4929823;29;19918;-84
2022/10/29 10:30:27;;;;;;;;;;;;;;;19.64;41.28;100724.94;4929983;29;20005;-84
2022/10/29 10:32:52;;;;;;;;;;;;;;;20.05;38.43;100719.03;4930149;29;20532;-85
2022/10/29 10:35:23;;;;;;;;;;;;;;;19.94;39.06;100719.44;4930089;29;19919;-84
2022/10/29 10:37:49;;;;;;;;;;;;;;;19.77;38.65;100714.72;4930226;29;19915;-85
2022/10/29 10:40:20;;;;;;;;;;;;;;;19.58;37.95;100711.78;4929661;29;19925;-83
2022/10/29 10:42:46;;;;;;;;;;;;;;;19.76;38.97;100712.94;4929903;29;20405;-86
2022/10/29 10:45:14;;;;;;;;;;;;;;;19.93;37.85;100706.97;4912323;29;19957;-85
2022/10/29 10:47:40;;;;;;;;;;;;;;;20.18;37.70;100695.31;4929281;29;19989;-85
2022/10/29 10:50:11;;;;;;;;;;;;;;;20.19;38.34;100697.94;4929413;29;20400;-86
2022/10/29 10:52:38;;;;;;;;;;;;;;;20.45;37.52;100690.69;4929126;29;19937;-86
2022/10/29 10:55:21;;;;;;;;;;;;;;;20.28;38.02;100688.69;4913126;29;19922;-85
2022/10/29 10:57:53;;;;;;;;;;;;;;;20.31;38.47;100682.31;4929652;29;20401;-86
2022/10/29 11:00:20;;;;;;;;;;;;;;;20.63;36.87;100670.28;4929486;29;20544;-87
2022/10/29 11:03:09;;;;;;;;;;;;;;;20.44;37.59;100672.00;4929560;29;19992;-86
2022/10/29 11:05:36;;;;;;;;;;;;;;;20.59;36.61;100660.66;4930220;29;19922;-86
2022/10/29 11:08:07;;;;;;;;;;;;;;;20.64;37.13;100660.44;4929979;29;19915;-85
2022/10/29 11:10:35;;;;;;;;;;;;;;;20.79;37.12;100656.28;4929705;29;19919;-85
2022/10/29 11:13:04;;;;;;;;;;;;;;;20.98;36.46;100651.88;4929476;29;19925;-86
2022/10/29 11:15:36;;;;;;;;;;;;;;;20.92;36.14;100650.31;4929398;29;19919;-86
2022/10/29 11:18:05;;;;;;;;;;;;;;;21.22;35.39;100641.88;4929295;29;19918;-84
2022/10/29 11:20:33;;;;;;;;;;;;;;;21.16;35.75;100642.13;4928999;29;20452;-87
2022/10/29 11:23:17;;;;;;;;;;;;;;;20.96;35.91;100632.31;4929544;29;19922;-88
2022/10/29 11:25:52;;;;;;;;;;;;;;;20.99;35.83;100633.97;4912228;29;20622;-86
2022/10/29 11:28:24;;;;;;;;;;;;;;;21.02;35.88;100633.84;4932503;29;19922;-87
2022/10/29 11:30:53;;;;;;;;;;;;;;;20.97;36.00;100626.00;4932767;29;19925;-88
2022/10/29 11:33:26;;;;;;;;;;;;;;;20.79;35.89;100622.31;4932937;29;19918;-86
2022/10/29 11:36:15;;;;;;;;;;;;;;;20.92;37.06;100615.47;4932743;29;19989;-88
2022/10/29 11:38:42;;;;;;;;;;;;;;;21.16;35.29;100615.31;4918606;29;19915;-86
2022/10/29 11:41:10;;;;;;;;;;;;;;;21.28;35.02;100606.72;4932929;29;19918;-85
2022/10/29 11:43:36;;;;;;;;;;;;;;;21.34;34.97;100604.72;4932598;29;19982;-86
2022/10/29 11:46:04;;;;;;;;;;;;;;;21.33;35.64;100606.50;4932333;29;20883;-85
2022/10/29 11:48:35;;;;;;;;;;;;;;;21.49;35.02;100605.81;4932934;29;19922;-87
2022/10/29 11:51:04;;;;;;;;;;;;;;;21.39;35.08;100602.69;4932575;29;19962;-86
2022/10/29 11:53:32;;;;;;;;;;;;;;;21.51;34.88;100602.16;4932297;29;19925;-86
2022/10/29 11:56:09;;;;;;;;;;;;;;;21.56;34.41;100596.56;4932117;29;20017;-86
2022/10/29 11:58:38;;;;;;;;;;;;;;;21.35;33.77;100590.34;4932270;29;19926;-87
2022/10/29 12:01:22;;;;;;;;;;;;;;;21.40;33.57;100589.19;4932142;29;20005;-88
2022/10/29 12:04:08;;;;;;;;;;;;;;;21.44;34.51;100579.19;4932471;29;19919;-86
2022/10/29 12:06:39;;;;;;;;;;;;;;;21.43;34.10;100585.50;4893217;29;20436;-87
2022/10/29 12:09:23;;;;;;;;;;;;;;;21.69;33.03;100573.59;4932248;29;20608;-85
2022/10/29 12:12:02;;;;;;;;;;;;;;;21.76;32.88;100566.97;4932586;29;19923;-85
2022/10/29 12:14:46;;;;;;;;;;;;;;;21.76;33.65;100571.47;4932313;29;19918;-84
2022/10/29 12:17:26;;;;;;;;;;;;;;;21.84;32.81;100563.06;4932223;29;19919;-86
2022/10/29 12:20:16;;;;;;;;;;;;;;;21.95;33.24;100564.28;4932395;29;20007;-86
2022/10/29 12:23:22;;;;;;;;;;;;;;;22.07;33.07;100562.78;4931978;29;19958;-83
2022/10/29 12:26:05;;;;;;;;;;;;;;;22.08;32.47;100559.16;4854084;29;19927;-84
2022/10/29 12:28:30;;;;;;;;;;;;;;;22.08;32.31;100561.84;4927543;29;20418;-84
2022/10/29 12:30:55;;;;;;;;;;;;;;;21.95;32.58;100548.16;4931832;29;19962;-84
2022/10/29 12:33:24;;;;;;;;;;;;;;;22.02;32.00;100543.34;4931885;29;19941;-86
2022/10/29 12:35:59;;;;;;;;;;;;;;;22.03;31.96;100549.59;4931444;29;19925;-84
2022/10/29 12:38:50;;;;;;;;;;;;;;;22.11;31.77;100545.59;4930748;29;19919;-86
2022/10/29 12:41:18;;;;;;;;;;;;;;;21.87;31.65;100536.03;4927387;29;20394;-86
2022/10/29 12:43:44;;;;;;;;;;;;;;;22.03;31.26;100536.16;4931405;29;19919;-84
2022/10/29 12:46:24;;;;;;;;;;;;;;;22.05;32.31;100536.97;4931370;29;19922;-86